sensor_id;sensor_type;location;lat;lon;timestamp;P1;durP1;ratioP1;P2;durP2;ratioP2
68866;SDS011;56451;44.804;20.476;2022-07-05T00:00:47;17.70;;;9.07;;
68866;SDS011;56451;44.804;20.476;2022-07-05T00:03:13;12.23;;;8.47;;
68866;SDS011;56451;44.804;20.476;2022-07-05T00:05:38;13.15;;;7.60;;
68866;SDS011;56451;44.804;20.476;2022-07-05T00:08:05;12.65;;;8.25;;
68866;SDS011;56451;44.804;20.476;2022-07-05T00:10:32;9.83;;;7.73;;
68866;SDS011;56451;44.804;20.476;2022-07-05T00:13:01;10.85;;;7.28;;
68866;SDS011;56451;44.804;20.476;2022-07-05T00:15:28;14.60;;;7.55;;
68866;SDS011;56451;44.804;20.476;2022-07-05T00:17:54;10.55;;;7.80;;
68866;SDS011;56451;44.804;20.476;2022-07-05T00:20:20;13.40;;;8.33;;
68866;SDS011;56451;44.804;20.476;2022-07-05T00:22:46;11.77;;;8.35;;
68866;SDS011;56451;44.804;20.476;2022-07-05T00:25:11;10.50;;;7.90;;
68866;SDS011;56451;44.804;20.476;2022-07-05T00:27:37;8.70;;;7.43;;
68866;SDS011;56451;44.804;20.476;2022-07-05T00:30:04;11.27;;;8.13;;
68866;SDS011;56451;44.804;20.476;2022-07-05T00:32:31;10.93;;;8.45;;
68866;SDS011;56451;44.804;20.476;2022-07-05T00:34:57;12.45;;;7.93;;
68866;SDS011;56451;44.804;20.476;2022-07-05T00:37:22;13.37;;;7.90;;
68866;SDS011;56451;44.804;20.476;2022-07-05T00:39:48;12.15;;;7.60;;
68866;SDS011;56451;44.804;20.476;2022-07-05T00:42:14;11.93;;;7.77;;
68866;SDS011;56451;44.804;20.476;2022-07-05T00:44:40;9.70;;;7.43;;
68866;SDS011;56451;44.804;20.476;2022-07-05T00:47:08;8.10;;;6.28;;
68866;SDS011;56451;44.804;20.476;2022-07-05T00:49:35;10.73;;;6.78;;
68866;SDS011;56451;44.804;20.476;2022-07-05T00:52:01;10.38;;;7.55;;
68866;SDS011;56451;44.804;20.476;2022-07-05T00:54:28;8.90;;;6.37;;
68866;SDS011;56451;44.804;20.476;2022-07-05T00:56:57;8.88;;;6.35;;
68866;SDS011;56451;44.804;20.476;2022-07-05T00:59:23;9.77;;;6.82;;
68866;SDS011;56451;44.804;20.476;2022-07-05T01:01:49;9.55;;;5.88;;
68866;SDS011;56451;44.804;20.476;2022-07-05T01:04:14;7.17;;;5.13;;
68866;SDS011;56451;44.804;20.476;2022-07-05T01:06:42;10.45;;;5.82;;
68866;SDS011;56451;44.804;20.476;2022-07-05T01:09:13;7.13;;;5.45;;
68866;SDS011;56451;44.804;20.476;2022-07-05T01:11:42;6.93;;;5.45;;
68866;SDS011;56451;44.804;20.476;2022-07-05T01:14:09;9.07;;;5.10;;
68866;SDS011;56451;44.804;20.476;2022-07-05T01:16:38;8.02;;;5.78;;
68866;SDS011;56451;44.804;20.476;2022-07-05T01:19:05;10.75;;;5.55;;
68866;SDS011;56451;44.804;20.476;2022-07-05T01:21:37;7.05;;;5.15;;
68866;SDS011;56451;44.804;20.476;2022-07-05T01:24:05;8.07;;;4.85;;
68866;SDS011;56451;44.804;20.476;2022-07-05T01:26:32;8.57;;;5.10;;
68866;SDS011;56451;44.804;20.476;2022-07-05T01:28:58;9.63;;;5.30;;
68866;SDS011;56451;44.804;20.476;2022-07-05T01:31:24;6.20;;;5.22;;
68866;SDS011;56451;44.804;20.476;2022-07-05T01:33:49;8.13;;;5.07;;
68866;SDS011;56451;44.804;20.476;2022-07-05T01:36:15;10.07;;;5.10;;
68866;SDS011;56451;44.804;20.476;2022-07-05T01:38:41;9.68;;;5.47;;
68866;SDS011;56451;44.804;20.476;2022-07-05T01:41:10;6.93;;;5.30;;
68866;SDS011;56451;44.804;20.476;2022-07-05T01:43:36;8.23;;;5.90;;
68866;SDS011;56451;44.804;20.476;2022-07-05T01:46:02;9.45;;;5.75;;
68866;SDS011;56451;44.804;20.476;2022-07-05T01:48:31;10.68;;;6.25;;
68866;SDS011;56451;44.804;20.476;2022-07-05T01:51:01;9.60;;;5.85;;
68866;SDS011;56451;44.804;20.476;2022-07-05T01:53:31;8.40;;;5.70;;
68866;SDS011;56451;44.804;20.476;2022-07-05T01:56:01;10.45;;;6.55;;
68866;SDS011;56451;44.804;20.476;2022-07-05T01:58:29;7.70;;;5.75;;
68866;SDS011;56451;44.804;20.476;2022-07-05T02:00:56;8.52;;;6.80;;
68866;SDS011;56451;44.804;20.476;2022-07-05T02:03:25;9.05;;;6.95;;
68866;SDS011;56451;44.804;20.476;2022-07-05T02:05:51;10.27;;;6.47;;
68866;SDS011;56451;44.804;20.476;2022-07-05T02:08:20;10.32;;;6.35;;
68866;SDS011;56451;44.804;20.476;2022-07-05T02:10:46;9.35;;;6.90;;
68866;SDS011;56451;44.804;20.476;2022-07-05T02:13:12;10.45;;;6.40;;
68866;SDS011;56451;44.804;20.476;2022-07-05T02:15:40;13.20;;;7.10;;
68866;SDS011;56451;44.804;20.476;2022-07-05T02:18:08;9.90;;;6.93;;
68866;SDS011;56451;44.804;20.476;2022-07-05T02:20:37;13.40;;;7.50;;
68866;SDS011;56451;44.804;20.476;2022-07-05T02:23:05;12.35;;;6.90;;
68866;SDS011;56451;44.804;20.476;2022-07-05T02:25:31;13.52;;;6.88;;
68866;SDS011;56451;44.804;20.476;2022-07-05T02:28:00;9.68;;;7.25;;
68866;SDS011;56451;44.804;20.476;2022-07-05T02:30:27;10.80;;;6.93;;
68866;SDS011;56451;44.804;20.476;2022-07-05T02:32:53;12.88;;;6.30;;
68866;SDS011;56451;44.804;20.476;2022-07-05T02:35:19;11.18;;;6.57;;
68866;SDS011;56451;44.804;20.476;2022-07-05T02:37:45;10.77;;;6.13;;
68866;SDS011;56451;44.804;20.476;2022-07-05T02:40:12;9.10;;;6.30;;
68866;SDS011;56451;44.804;20.476;2022-07-05T02:42:42;13.25;;;6.38;;
68866;SDS011;56451;44.804;20.476;2022-07-05T02:45:10;9.10;;;6.55;;
68866;SDS011;56451;44.804;20.476;2022-07-05T02:47:37;7.82;;;6.10;;
68866;SDS011;56451;44.804;20.476;2022-07-05T02:50:04;9.73;;;6.45;;
68866;SDS011;56451;44.804;20.476;2022-07-05T02:52:36;10.77;;;6.80;;
68866;SDS011;56451;44.804;20.476;2022-07-05T02:55:03;13.32;;;7.03;;
68866;SDS011;56451;44.804;20.476;2022-07-05T02:57:30;12.45;;;6.97;;
68866;SDS011;56451;44.804;20.476;2022-07-05T02:59:58;12.00;;;6.28;;
68866;SDS011;56451;44.804;20.476;2022-07-05T03:02:33;9.98;;;6.50;;
68866;SDS011;56451;44.804;20.476;2022-07-05T03:05:00;10.57;;;6.47;;
68866;SDS011;56451;44.804;20.476;2022-07-05T03:07:26;12.77;;;6.55;;
68866;SDS011;56451;44.804;20.476;2022-07-05T03:09:52;11.60;;;6.78;;
68866;SDS011;56451;44.804;20.476;2022-07-05T03:12:18;12.30;;;7.25;;
68866;SDS011;56451;44.804;20.476;2022-07-05T03:14:45;10.07;;;6.40;;
68866;SDS011;56451;44.804;20.476;2022-07-05T03:17:11;12.00;;;6.72;;
68866;SDS011;56451;44.804;20.476;2022-07-05T03:19:37;12.43;;;6.35;;
68866;SDS011;56451;44.804;20.476;2022-07-05T03:22:05;11.25;;;6.72;;
68866;SDS011;56451;44.804;20.476;2022-07-05T03:24:33;10.30;;;6.93;;
68866;SDS011;56451;44.804;20.476;2022-07-05T03:26:58;12.85;;;7.03;;
68866;SDS011;56451;44.804;20.476;2022-07-05T03:29:24;13.57;;;7.07;;
68866;SDS011;56451;44.804;20.476;2022-07-05T03:31:52;11.23;;;6.30;;
68866;SDS011;56451;44.804;20.476;2022-07-05T03:34:18;11.95;;;6.50;;
68866;SDS011;56451;44.804;20.476;2022-07-05T03:36:44;11.25;;;6.47;;
68866;SDS011;56451;44.804;20.476;2022-07-05T03:39:14;19.80;;;7.13;;
68866;SDS011;56451;44.804;20.476;2022-07-05T03:41:41;14.20;;;7.28;;
68866;SDS011;56451;44.804;20.476;2022-07-05T03:44:09;12.43;;;7.13;;
68866;SDS011;56451;44.804;20.476;2022-07-05T03:46:35;14.63;;;7.57;;
68866;SDS011;56451;44.804;20.476;2022-07-05T03:49:01;12.27;;;7.07;;
68866;SDS011;56451;44.804;20.476;2022-07-05T03:51:27;14.50;;;7.43;;
68866;SDS011;56451;44.804;20.476;2022-07-05T03:53:54;12.88;;;8.20;;
68866;SDS011;56451;44.804;20.476;2022-07-05T03:56:21;14.73;;;7.97;;
68866;SDS011;56451;44.804;20.476;2022-07-05T03:58:51;13.30;;;7.72;;
68866;SDS011;56451;44.804;20.476;2022-07-05T04:01:18;10.35;;;7.53;;
68866;SDS011;56451;44.804;20.476;2022-07-05T04:03:44;12.10;;;7.63;;
68866;SDS011;56451;44.804;20.476;2022-07-05T04:06:12;14.95;;;7.75;;
68866;SDS011;56451;44.804;20.476;2022-07-05T04:08:39;11.73;;;7.57;;
68866;SDS011;56451;44.804;20.476;2022-07-05T04:11:05;11.63;;;7.50;;
68866;SDS011;56451;44.804;20.476;2022-07-05T04:13:33;14.02;;;8.48;;
68866;SDS011;56451;44.804;20.476;2022-07-05T04:15:59;14.00;;;9.93;;
68866;SDS011;56451;44.804;20.476;2022-07-05T04:18:25;15.45;;;9.95;;
68866;SDS011;56451;44.804;20.476;2022-07-05T04:20:53;14.48;;;8.95;;
68866;SDS011;56451;44.804;20.476;2022-07-05T04:23:19;15.38;;;8.70;;
68866;SDS011;56451;44.804;20.476;2022-07-05T04:25:45;10.87;;;7.77;;
68866;SDS011;56451;44.804;20.476;2022-07-05T04:28:34;11.77;;;8.05;;
68866;SDS011;56451;44.804;20.476;2022-07-05T04:31:02;12.50;;;7.15;;
68866;SDS011;56451;44.804;20.476;2022-07-05T04:33:31;12.55;;;7.35;;
68866;SDS011;56451;44.804;20.476;2022-07-05T04:35:58;10.87;;;7.43;;
68866;SDS011;56451;44.804;20.476;2022-07-05T04:38:24;9.82;;;7.55;;
68866;SDS011;56451;44.804;20.476;2022-07-05T04:40:50;11.85;;;7.95;;
68866;SDS011;56451;44.804;20.476;2022-07-05T04:43:17;12.15;;;7.70;;
68866;SDS011;56451;44.804;20.476;2022-07-05T04:45:43;13.33;;;8.13;;
68866;SDS011;56451;44.804;20.476;2022-07-05T04:48:09;15.02;;;7.80;;
68866;SDS011;56451;44.804;20.476;2022-07-05T04:50:38;10.70;;;7.53;;
68866;SDS011;56451;44.804;20.476;2022-07-05T04:53:04;14.18;;;8.13;;
68866;SDS011;56451;44.804;20.476;2022-07-05T04:55:30;13.13;;;8.20;;
68866;SDS011;56451;44.804;20.476;2022-07-05T04:57:56;14.57;;;8.80;;
68866;SDS011;56451;44.804;20.476;2022-07-05T05:00:22;13.43;;;9.05;;
68866;SDS011;56451;44.804;20.476;2022-07-05T05:02:47;14.70;;;8.60;;
68866;SDS011;56451;44.804;20.476;2022-07-05T05:05:13;10.80;;;8.55;;
68866;SDS011;56451;44.804;20.476;2022-07-05T05:07:42;12.77;;;9.47;;
68866;SDS011;56451;44.804;20.476;2022-07-05T05:10:09;12.48;;;9.45;;
68866;SDS011;56451;44.804;20.476;2022-07-05T05:12:36;10.57;;;8.77;;
68866;SDS011;56451;44.804;20.476;2022-07-05T05:15:02;13.75;;;9.25;;
68866;SDS011;56451;44.804;20.476;2022-07-05T05:17:41;11.67;;;8.53;;
68866;SDS011;56451;44.804;20.476;2022-07-05T05:20:12;12.68;;;9.23;;
68866;SDS011;56451;44.804;20.476;2022-07-05T05:22:39;15.38;;;9.40;;
68866;SDS011;56451;44.804;20.476;2022-07-05T05:25:05;13.10;;;8.57;;
68866;SDS011;56451;44.804;20.476;2022-07-05T05:27:32;13.00;;;9.18;;
68866;SDS011;56451;44.804;20.476;2022-07-05T05:29:58;11.60;;;7.90;;
68866;SDS011;56451;44.804;20.476;2022-07-05T05:32:23;15.10;;;8.85;;
68866;SDS011;56451;44.804;20.476;2022-07-05T05:34:49;12.33;;;8.20;;
68866;SDS011;56451;44.804;20.476;2022-07-05T05:37:15;10.38;;;8.13;;
68866;SDS011;56451;44.804;20.476;2022-07-05T05:39:41;17.40;;;9.73;;
68866;SDS011;56451;44.804;20.476;2022-07-05T05:42:06;23.93;;;10.90;;
68866;SDS011;56451;44.804;20.476;2022-07-05T05:44:32;38.60;;;11.63;;
68866;SDS011;56451;44.804;20.476;2022-07-05T05:46:58;37.20;;;12.10;;
68866;SDS011;56451;44.804;20.476;2022-07-05T05:49:24;38.27;;;11.40;;
68866;SDS011;56451;44.804;20.476;2022-07-05T05:51:50;37.88;;;11.90;;
68866;SDS011;56451;44.804;20.476;2022-07-05T05:54:16;25.60;;;10.38;;
68866;SDS011;56451;44.804;20.476;2022-07-05T05:56:41;30.93;;;11.43;;
68866;SDS011;56451;44.804;20.476;2022-07-05T05:59:07;29.35;;;11.40;;
68866;SDS011;56451;44.804;20.476;2022-07-05T06:01:33;21.20;;;11.27;;
68866;SDS011;56451;44.804;20.476;2022-07-05T06:03:59;26.57;;;11.70;;
68866;SDS011;56451;44.804;20.476;2022-07-05T06:06:25;19.40;;;10.95;;
68866;SDS011;56451;44.804;20.476;2022-07-05T06:08:50;24.00;;;11.63;;
68866;SDS011;56451;44.804;20.476;2022-07-05T06:11:16;22.08;;;11.23;;
68866;SDS011;56451;44.804;20.476;2022-07-05T06:13:42;26.43;;;11.37;;
68866;SDS011;56451;44.804;20.476;2022-07-05T06:16:08;23.67;;;11.38;;
68866;SDS011;56451;44.804;20.476;2022-07-05T06:18:34;24.27;;;10.48;;
68866;SDS011;56451;44.804;20.476;2022-07-05T06:21:00;15.40;;;9.93;;
68866;SDS011;56451;44.804;20.476;2022-07-05T06:23:26;18.73;;;10.50;;
68866;SDS011;56451;44.804;20.476;2022-07-05T06:25:52;17.92;;;10.75;;
68866;SDS011;56451;44.804;20.476;2022-07-05T06:28:17;16.73;;;10.73;;
68866;SDS011;56451;44.804;20.476;2022-07-05T06:30:43;22.25;;;11.25;;
68866;SDS011;56451;44.804;20.476;2022-07-05T06:33:09;20.15;;;10.95;;
68866;SDS011;56451;44.804;20.476;2022-07-05T06:35:35;22.33;;;11.27;;
68866;SDS011;56451;44.804;20.476;2022-07-05T06:38:02;19.90;;;11.25;;
68866;SDS011;56451;44.804;20.476;2022-07-05T06:40:33;16.77;;;11.57;;
68866;SDS011;56451;44.804;20.476;2022-07-05T06:43:01;19.70;;;11.52;;
68866;SDS011;56451;44.804;20.476;2022-07-05T06:45:36;15.88;;;10.95;;
68866;SDS011;56451;44.804;20.476;2022-07-05T06:48:03;17.70;;;10.87;;
68866;SDS011;56451;44.804;20.476;2022-07-05T06:50:35;16.55;;;10.35;;
68866;SDS011;56451;44.804;20.476;2022-07-05T06:53:03;17.77;;;11.13;;
68866;SDS011;56451;44.804;20.476;2022-07-05T06:55:30;24.05;;;10.52;;
68866;SDS011;56451;44.804;20.476;2022-07-05T07:00:26;16.77;;;8.63;;
68866;SDS011;56451;44.804;20.476;2022-07-05T07:02:52;12.65;;;7.35;;
68866;SDS011;56451;44.804;20.476;2022-07-05T07:05:19;13.38;;;7.18;;
68866;SDS011;56451;44.804;20.476;2022-07-05T07:07:45;13.25;;;7.00;;
68866;SDS011;56451;44.804;20.476;2022-07-05T07:10:29;10.65;;;6.75;;
68866;SDS011;56451;44.804;20.476;2022-07-05T07:12:55;8.87;;;5.10;;
68866;SDS011;56451;44.804;20.476;2022-07-05T07:15:22;6.60;;;4.43;;
68866;SDS011;56451;44.804;20.476;2022-07-05T07:17:48;9.40;;;3.80;;
68866;SDS011;56451;44.804;20.476;2022-07-05T07:20:14;9.93;;;5.33;;
68866;SDS011;56451;44.804;20.476;2022-07-05T07:22:39;10.57;;;4.97;;
68866;SDS011;56451;44.804;20.476;2022-07-05T07:25:05;9.10;;;4.83;;
68866;SDS011;56451;44.804;20.476;2022-07-05T07:30:16;16.35;;;10.63;;
68866;SDS011;56451;44.804;20.476;2022-07-05T07:32:44;19.13;;;11.02;;
68866;SDS011;56451;44.804;20.476;2022-07-05T07:35:10;21.85;;;11.30;;
68866;SDS011;56451;44.804;20.476;2022-07-05T07:37:36;21.23;;;11.03;;
68866;SDS011;56451;44.804;20.476;2022-07-05T07:40:02;17.23;;;11.35;;
68866;SDS011;56451;44.804;20.476;2022-07-05T07:42:29;26.42;;;12.32;;
68866;SDS011;56451;44.804;20.476;2022-07-05T07:44:55;14.90;;;9.93;;
68866;SDS011;56451;44.804;20.476;2022-07-05T07:47:21;21.98;;;11.25;;
68866;SDS011;56451;44.804;20.476;2022-07-05T07:49:47;21.23;;;10.20;;
68866;SDS011;56451;44.804;20.476;2022-07-05T07:52:13;20.47;;;10.17;;
68866;SDS011;56451;44.804;20.476;2022-07-05T07:54:40;19.35;;;10.27;;
68866;SDS011;56451;44.804;20.476;2022-07-05T07:57:06;27.05;;;10.15;;
68866;SDS011;56451;44.804;20.476;2022-07-05T07:59:32;18.05;;;10.82;;
68866;SDS011;56451;44.804;20.476;2022-07-05T08:01:58;17.03;;;9.20;;
68866;SDS011;56451;44.804;20.476;2022-07-05T08:04:24;13.38;;;8.32;;
68866;SDS011;56451;44.804;20.476;2022-07-05T08:06:50;16.55;;;7.90;;
68866;SDS011;56451;44.804;20.476;2022-07-05T08:09:15;12.53;;;7.90;;
68866;SDS011;56451;44.804;20.476;2022-07-05T08:11:41;14.43;;;7.03;;
68866;SDS011;56451;44.804;20.476;2022-07-05T08:14:08;17.38;;;7.85;;
68866;SDS011;56451;44.804;20.476;2022-07-05T08:16:34;14.23;;;8.15;;
68866;SDS011;56451;44.804;20.476;2022-07-05T08:18:59;15.53;;;7.80;;
68866;SDS011;56451;44.804;20.476;2022-07-05T08:21:44;16.58;;;6.85;;
68866;SDS011;56451;44.804;20.476;2022-07-05T08:24:10;10.13;;;7.18;;
68866;SDS011;56451;44.804;20.476;2022-07-05T08:26:40;13.43;;;7.53;;
68866;SDS011;56451;44.804;20.476;2022-07-05T08:29:08;16.70;;;6.80;;
68866;SDS011;56451;44.804;20.476;2022-07-05T08:31:37;10.70;;;7.07;;
68866;SDS011;56451;44.804;20.476;2022-07-05T08:34:04;14.75;;;6.63;;
68866;SDS011;56451;44.804;20.476;2022-07-05T08:36:30;12.45;;;7.70;;
68866;SDS011;56451;44.804;20.476;2022-07-05T08:38:56;11.37;;;7.00;;
68866;SDS011;56451;44.804;20.476;2022-07-05T08:41:22;10.18;;;7.20;;
68866;SDS011;56451;44.804;20.476;2022-07-05T08:43:49;11.30;;;7.72;;
68866;SDS011;56451;44.804;20.476;2022-07-05T08:46:17;12.93;;;7.70;;
68866;SDS011;56451;44.804;20.476;2022-07-05T08:48:44;11.40;;;6.40;;
68866;SDS011;56451;44.804;20.476;2022-07-05T08:51:14;9.93;;;7.00;;
68866;SDS011;56451;44.804;20.476;2022-07-05T08:53:42;13.02;;;7.57;;
68866;SDS011;56451;44.804;20.476;2022-07-05T08:56:10;10.63;;;6.90;;
68866;SDS011;56451;44.804;20.476;2022-07-05T08:58:38;8.07;;;6.15;;
68866;SDS011;56451;44.804;20.476;2022-07-05T09:01:04;9.47;;;5.77;;
68866;SDS011;56451;44.804;20.476;2022-07-05T09:03:32;11.13;;;6.57;;
68866;SDS011;56451;44.804;20.476;2022-07-05T09:06:03;8.57;;;6.03;;
68866;SDS011;56451;44.804;20.476;2022-07-05T09:08:32;9.85;;;5.68;;
68866;SDS011;56451;44.804;20.476;2022-07-05T09:11:04;9.05;;;5.68;;
68866;SDS011;56451;44.804;20.476;2022-07-05T09:13:35;9.67;;;5.87;;
68866;SDS011;56451;44.804;20.476;2022-07-05T09:16:02;9.68;;;7.07;;
68866;SDS011;56451;44.804;20.476;2022-07-05T09:21:30;7.45;;;6.05;;
68866;SDS011;56451;44.804;20.476;2022-07-05T09:24:00;7.90;;;5.80;;
68866;SDS011;56451;44.804;20.476;2022-07-05T09:26:40;13.85;;;5.57;;
68866;SDS011;56451;44.804;20.476;2022-07-05T09:29:08;11.50;;;6.35;;
68866;SDS011;56451;44.804;20.476;2022-07-05T09:31:48;7.90;;;5.55;;
68866;SDS011;56451;44.804;20.476;2022-07-05T09:34:17;8.27;;;5.72;;
68866;SDS011;56451;44.804;20.476;2022-07-05T09:36:55;11.03;;;5.63;;
68866;SDS011;56451;44.804;20.476;2022-07-05T09:42:18;6.50;;;5.05;;
68866;SDS011;56451;44.804;20.476;2022-07-05T09:44:45;8.70;;;5.40;;
68866;SDS011;56451;44.804;20.476;2022-07-05T09:47:13;9.25;;;5.50;;
68866;SDS011;56451;44.804;20.476;2022-07-05T09:49:41;11.90;;;5.83;;
68866;SDS011;56451;44.804;20.476;2022-07-05T09:52:36;10.40;;;5.65;;
68866;SDS011;56451;44.804;20.476;2022-07-05T09:57:33;8.23;;;5.72;;
68866;SDS011;56451;44.804;20.476;2022-07-05T10:00:01;7.72;;;5.38;;
68866;SDS011;56451;44.804;20.476;2022-07-05T10:05:13;7.45;;;4.85;;
68866;SDS011;56451;44.804;20.476;2022-07-05T10:07:41;10.57;;;5.20;;
68866;SDS011;56451;44.804;20.476;2022-07-05T10:10:13;7.55;;;5.07;;
68866;SDS011;56451;44.804;20.476;2022-07-05T10:12:40;9.18;;;5.38;;
68866;SDS011;56451;44.804;20.476;2022-07-05T10:15:07;8.27;;;5.00;;
68866;SDS011;56451;44.804;20.476;2022-07-05T10:17:36;7.35;;;5.22;;
68866;SDS011;56451;44.804;20.476;2022-07-05T10:20:10;6.45;;;5.20;;
68866;SDS011;56451;44.804;20.476;2022-07-05T10:22:41;6.93;;;5.45;;
68866;SDS011;56451;44.804;20.476;2022-07-05T10:25:08;7.53;;;5.20;;
68866;SDS011;56451;44.804;20.476;2022-07-05T10:27:34;7.27;;;5.60;;
68866;SDS011;56451;44.804;20.476;2022-07-05T10:30:02;8.68;;;5.95;;
68866;SDS011;56451;44.804;20.476;2022-07-05T10:32:29;14.48;;;6.63;;
68866;SDS011;56451;44.804;20.476;2022-07-05T10:34:57;7.45;;;6.53;;
68866;SDS011;56451;44.804;20.476;2022-07-05T10:37:25;10.45;;;5.57;;
68866;SDS011;56451;44.804;20.476;2022-07-05T10:39:54;6.57;;;5.43;;
68866;SDS011;56451;44.804;20.476;2022-07-05T10:42:21;6.50;;;5.20;;
68866;SDS011;56451;44.804;20.476;2022-07-05T10:44:48;9.95;;;5.93;;
68866;SDS011;56451;44.804;20.476;2022-07-05T10:47:14;9.93;;;6.07;;
68866;SDS011;56451;44.804;20.476;2022-07-05T10:49:40;8.27;;;5.63;;
68866;SDS011;56451;44.804;20.476;2022-07-05T10:52:21;9.82;;;6.40;;
68866;SDS011;56451;44.804;20.476;2022-07-05T11:00:43;7.97;;;6.22;;
68866;SDS011;56451;44.804;20.476;2022-07-05T11:03:54;8.75;;;5.93;;
68866;SDS011;56451;44.804;20.476;2022-07-05T11:06:01;10.50;;;6.80;;
68866;SDS011;56451;44.804;20.476;2022-07-05T11:11:30;9.97;;;6.70;;
68866;SDS011;56451;44.804;20.476;2022-07-05T11:14:02;11.40;;;6.35;;
68866;SDS011;56451;44.804;20.476;2022-07-05T11:22:24;12.55;;;7.20;;
68866;SDS011;56451;44.804;20.476;2022-07-05T11:24:50;8.10;;;7.27;;
68866;SDS011;56451;44.804;20.476;2022-07-05T11:27:17;9.23;;;7.18;;
68866;SDS011;56451;44.804;20.476;2022-07-05T11:29:48;9.82;;;7.47;;
68866;SDS011;56451;44.804;20.476;2022-07-05T11:32:19;8.98;;;7.20;;
68866;SDS011;56451;44.804;20.476;2022-07-05T11:34:50;11.10;;;7.77;;
68866;SDS011;56451;44.804;20.476;2022-07-05T11:42:35;8.98;;;7.55;;
68866;SDS011;56451;44.804;20.476;2022-07-05T11:45:21;11.35;;;8.50;;
68866;SDS011;56451;44.804;20.476;2022-07-05T11:47:47;12.27;;;8.33;;
68866;SDS011;56451;44.804;20.476;2022-07-05T11:50:13;10.43;;;9.20;;
68866;SDS011;56451;44.804;20.476;2022-07-05T11:52:39;12.95;;;9.10;;
68866;SDS011;56451;44.804;20.476;2022-07-05T11:55:09;12.13;;;8.65;;
68866;SDS011;56451;44.804;20.476;2022-07-05T11:57:36;11.57;;;8.27;;
68866;SDS011;56451;44.804;20.476;2022-07-05T12:00:03;13.23;;;9.15;;
68866;SDS011;56451;44.804;20.476;2022-07-05T12:02:43;11.73;;;8.65;;
68866;SDS011;56451;44.804;20.476;2022-07-05T12:05:09;11.45;;;8.02;;
68866;SDS011;56451;44.804;20.476;2022-07-05T12:07:37;16.23;;;8.45;;
68866;SDS011;56451;44.804;20.476;2022-07-05T12:10:02;13.63;;;8.37;;
68866;SDS011;56451;44.804;20.476;2022-07-05T12:12:47;17.17;;;8.63;;
68866;SDS011;56451;44.804;20.476;2022-07-05T12:15:14;11.47;;;7.97;;
68866;SDS011;56451;44.804;20.476;2022-07-05T12:17:43;10.60;;;8.23;;
68866;SDS011;56451;44.804;20.476;2022-07-05T12:20:14;11.60;;;8.48;;
68866;SDS011;56451;44.804;20.476;2022-07-05T12:22:45;12.43;;;9.00;;
68866;SDS011;56451;44.804;20.476;2022-07-05T12:25:12;11.63;;;8.40;;
68866;SDS011;56451;44.804;20.476;2022-07-05T12:27:42;10.80;;;8.27;;
68866;SDS011;56451;44.804;20.476;2022-07-05T12:30:10;12.13;;;7.85;;
68866;SDS011;56451;44.804;20.476;2022-07-05T12:32:53;11.07;;;8.63;;
68866;SDS011;56451;44.804;20.476;2022-07-05T12:38:17;13.88;;;8.90;;
68866;SDS011;56451;44.804;20.476;2022-07-05T12:40:45;10.67;;;8.83;;
68866;SDS011;56451;44.804;20.476;2022-07-05T12:45:42;13.95;;;9.32;;
68866;SDS011;56451;44.804;20.476;2022-07-05T12:48:10;11.43;;;8.75;;
68866;SDS011;56451;44.804;20.476;2022-07-05T12:50:49;12.10;;;9.00;;
68866;SDS011;56451;44.804;20.476;2022-07-05T12:53:16;11.37;;;8.50;;
68866;SDS011;56451;44.804;20.476;2022-07-05T12:56:02;11.98;;;8.25;;
68866;SDS011;56451;44.804;20.476;2022-07-05T12:58:52;14.23;;;9.57;;
68866;SDS011;56451;44.804;20.476;2022-07-05T13:03:57;11.02;;;8.70;;
68866;SDS011;56451;44.804;20.476;2022-07-05T13:06:44;12.53;;;8.47;;
68866;SDS011;56451;44.804;20.476;2022-07-05T13:09:11;10.57;;;9.05;;
68866;SDS011;56451;44.804;20.476;2022-07-05T13:11:38;9.55;;;8.43;;
68866;SDS011;56451;44.804;20.476;2022-07-05T13:14:04;8.75;;;7.85;;
68866;SDS011;56451;44.804;20.476;2022-07-05T13:16:30;12.87;;;7.37;;
68866;SDS011;56451;44.804;20.476;2022-07-05T13:19:11;16.02;;;7.78;;
68866;SDS011;56451;44.804;20.476;2022-07-05T13:21:38;9.98;;;7.72;;
68866;SDS011;56451;44.804;20.476;2022-07-05T13:24:04;8.70;;;7.35;;
68866;SDS011;56451;44.804;20.476;2022-07-05T13:26:30;9.50;;;8.50;;
68866;SDS011;56451;44.804;20.476;2022-07-05T13:28:56;9.13;;;7.90;;
68866;SDS011;56451;44.804;20.476;2022-07-05T13:31:22;12.55;;;7.97;;
68866;SDS011;56451;44.804;20.476;2022-07-05T13:33:48;10.95;;;8.73;;
68866;SDS011;56451;44.804;20.476;2022-07-05T13:36:13;12.43;;;7.77;;
68866;SDS011;56451;44.804;20.476;2022-07-05T13:38:39;10.07;;;8.02;;
68866;SDS011;56451;44.804;20.476;2022-07-05T13:41:05;8.97;;;7.80;;
68866;SDS011;56451;44.804;20.476;2022-07-05T13:43:30;12.88;;;8.70;;
68866;SDS011;56451;44.804;20.476;2022-07-05T13:45:56;11.60;;;8.17;;
68866;SDS011;56451;44.804;20.476;2022-07-05T13:48:22;12.27;;;8.85;;
68866;SDS011;56451;44.804;20.476;2022-07-05T13:50:48;13.90;;;8.13;;
68866;SDS011;56451;44.804;20.476;2022-07-05T13:53:13;10.95;;;8.07;;
68866;SDS011;56451;44.804;20.476;2022-07-05T13:55:39;14.17;;;8.20;;
68866;SDS011;56451;44.804;20.476;2022-07-05T13:58:05;11.52;;;8.23;;
68866;SDS011;56451;44.804;20.476;2022-07-05T14:00:30;12.43;;;7.93;;
68866;SDS011;56451;44.804;20.476;2022-07-05T14:02:56;13.40;;;7.93;;
68866;SDS011;56451;44.804;20.476;2022-07-05T14:05:22;11.63;;;9.17;;
68866;SDS011;56451;44.804;20.476;2022-07-05T14:07:48;11.93;;;8.15;;
68866;SDS011;56451;44.804;20.476;2022-07-05T14:10:13;12.20;;;8.33;;
68866;SDS011;56451;44.804;20.476;2022-07-05T14:12:40;12.45;;;8.65;;
68866;SDS011;56451;44.804;20.476;2022-07-05T14:15:06;9.82;;;8.07;;
68866;SDS011;56451;44.804;20.476;2022-07-05T14:17:32;13.35;;;8.60;;
68866;SDS011;56451;44.804;20.476;2022-07-05T14:19:58;13.30;;;8.43;;
68866;SDS011;56451;44.804;20.476;2022-07-05T14:22:24;12.27;;;8.63;;
68866;SDS011;56451;44.804;20.476;2022-07-05T14:24:50;13.90;;;8.13;;
68866;SDS011;56451;44.804;20.476;2022-07-05T14:27:16;11.17;;;8.03;;
68866;SDS011;56451;44.804;20.476;2022-07-05T14:29:41;10.77;;;7.72;;
68866;SDS011;56451;44.804;20.476;2022-07-05T14:32:07;12.50;;;6.73;;
68866;SDS011;56451;44.804;20.476;2022-07-05T14:34:33;8.20;;;6.97;;
68866;SDS011;56451;44.804;20.476;2022-07-05T14:36:58;8.60;;;6.67;;
68866;SDS011;56451;44.804;20.476;2022-07-05T14:39:25;9.85;;;6.68;;
68866;SDS011;56451;44.804;20.476;2022-07-05T14:41:51;7.97;;;6.80;;
68866;SDS011;56451;44.804;20.476;2022-07-05T14:44:17;9.23;;;6.60;;
68866;SDS011;56451;44.804;20.476;2022-07-05T14:46:43;13.07;;;7.37;;
68866;SDS011;56451;44.804;20.476;2022-07-05T14:49:09;9.38;;;6.60;;
68866;SDS011;56451;44.804;20.476;2022-07-05T14:51:35;11.77;;;6.72;;
68866;SDS011;56451;44.804;20.476;2022-07-05T14:54:00;13.10;;;6.70;;
68866;SDS011;56451;44.804;20.476;2022-07-05T14:56:26;13.30;;;6.85;;
68866;SDS011;56451;44.804;20.476;2022-07-05T14:58:52;9.20;;;6.57;;
68866;SDS011;56451;44.804;20.476;2022-07-05T15:01:17;7.67;;;6.43;;
68866;SDS011;56451;44.804;20.476;2022-07-05T15:03:44;13.93;;;6.53;;
68866;SDS011;56451;44.804;20.476;2022-07-05T15:06:10;8.65;;;5.93;;
68866;SDS011;56451;44.804;20.476;2022-07-05T15:08:36;9.43;;;6.60;;
68866;SDS011;56451;44.804;20.476;2022-07-05T15:11:02;10.13;;;6.73;;